sensor_id;sensor_type;location;lat;lon;timestamp;P1;durP1;ratioP1;P2;durP2;ratioP2
18228;SDS011;9239;50.932;3.142;2023-07-28T00:02:19;5.18;;;2.95;;
18228;SDS011;9239;50.932;3.142;2023-07-28T00:04:46;4.28;;;3.33;;
18228;SDS011;9239;50.932;3.142;2023-07-28T00:07:13;3.50;;;3.20;;
18228;SDS011;9239;50.932;3.142;2023-07-28T00:09:40;2.90;;;2.70;;
18228;SDS011;9239;50.932;3.142;2023-07-28T00:12:07;3.55;;;3.25;;
18228;SDS011;9239;50.932;3.142;2023-07-28T00:14:34;5.93;;;3.20;;
18228;SDS011;9239;50.932;3.142;2023-07-28T00:17:02;3.55;;;2.60;;
18228;SDS011;9239;50.932;3.142;2023-07-28T00:19:29;3.47;;;3.03;;
18228;SDS011;9239;50.932;3.142;2023-07-28T00:21:56;4.85;;;3.55;;
18228;SDS011;9239;50.932;3.142;2023-07-28T00:24:23;4.38;;;2.90;;
18228;SDS011;9239;50.932;3.142;2023-07-28T00:26:50;3.80;;;3.45;;
18228;SDS011;9239;50.932;3.142;2023-07-28T00:29:17;6.50;;;3.40;;
18228;SDS011;9239;50.932;3.142;2023-07-28T00:31:44;5.70;;;3.53;;
18228;SDS011;9239;50.932;3.142;2023-07-28T00:34:12;4.45;;;3.30;;
18228;SDS011;9239;50.932;3.142;2023-07-28T00:36:39;5.60;;;3.58;;
18228;SDS011;9239;50.932;3.142;2023-07-28T00:39:07;3.85;;;3.25;;
18228;SDS011;9239;50.932;3.142;2023-07-28T00:41:35;4.88;;;3.42;;
18228;SDS011;9239;50.932;3.142;2023-07-28T00:44:02;4.68;;;3.15;;
18228;SDS011;9239;50.932;3.142;2023-07-28T00:46:29;5.38;;;3.30;;
18228;SDS011;9239;50.932;3.142;2023-07-28T00:48:56;7.28;;;3.53;;
18228;SDS011;9239;50.932;3.142;2023-07-28T00:51:25;3.20;;;2.90;;
18228;SDS011;9239;50.932;3.142;2023-07-28T00:53:52;3.50;;;2.88;;
18228;SDS011;9239;50.932;3.142;2023-07-28T00:56:19;3.05;;;2.72;;
18228;SDS011;9239;50.932;3.142;2023-07-28T00:58:47;4.88;;;2.70;;
18228;SDS011;9239;50.932;3.142;2023-07-28T01:01:15;4.15;;;2.80;;
18228;SDS011;9239;50.932;3.142;2023-07-28T01:03:42;4.22;;;2.65;;
18228;SDS011;9239;50.932;3.142;2023-07-28T01:06:11;2.92;;;2.47;;
18228;SDS011;9239;50.932;3.142;2023-07-28T01:08:46;3.55;;;2.65;;
18228;SDS011;9239;50.932;3.142;2023-07-28T01:11:17;3.38;;;2.63;;
18228;SDS011;9239;50.932;3.142;2023-07-28T01:13:45;5.22;;;2.55;;
18228;SDS011;9239;50.932;3.142;2023-07-28T01:16:12;3.58;;;2.63;;
18228;SDS011;9239;50.932;3.142;2023-07-28T01:18:39;3.50;;;2.50;;
18228;SDS011;9239;50.932;3.142;2023-07-28T01:21:08;2.88;;;2.65;;
18228;SDS011;9239;50.932;3.142;2023-07-28T01:23:44;3.63;;;3.03;;
18228;SDS011;9239;50.932;3.142;2023-07-28T01:26:25;3.70;;;3.05;;
18228;SDS011;9239;50.932;3.142;2023-07-28T01:28:54;3.03;;;2.42;;
18228;SDS011;9239;50.932;3.142;2023-07-28T01:31:22;3.15;;;2.78;;
18228;SDS011;9239;50.932;3.142;2023-07-28T01:33:49;2.65;;;2.45;;
18228;SDS011;9239;50.932;3.142;2023-07-28T01:36:15;2.60;;;2.40;;
18228;SDS011;9239;50.932;3.142;2023-07-28T01:38:42;5.88;;;2.58;;
18228;SDS011;9239;50.932;3.142;2023-07-28T01:41:09;3.10;;;2.80;;
18228;SDS011;9239;50.932;3.142;2023-07-28T01:43:38;2.90;;;2.67;;
18228;SDS011;9239;50.932;3.142;2023-07-28T01:46:07;4.45;;;2.65;;
18228;SDS011;9239;50.932;3.142;2023-07-28T01:48:34;2.90;;;2.67;;
18228;SDS011;9239;50.932;3.142;2023-07-28T01:51:01;3.25;;;2.38;;
18228;SDS011;9239;50.932;3.142;2023-07-28T01:53:28;3.88;;;3.13;;
18228;SDS011;9239;50.932;3.142;2023-07-28T01:55:55;4.28;;;2.85;;
18228;SDS011;9239;50.932;3.142;2023-07-28T01:58:22;3.00;;;2.80;;
18228;SDS011;9239;50.932;3.142;2023-07-28T02:00:50;3.95;;;2.78;;
18228;SDS011;9239;50.932;3.142;2023-07-28T02:03:17;3.38;;;3.08;;
18228;SDS011;9239;50.932;3.142;2023-07-28T02:05:44;2.72;;;2.40;;
18228;SDS011;9239;50.932;3.142;2023-07-28T02:08:11;2.70;;;2.50;;
18228;SDS011;9239;50.932;3.142;2023-07-28T02:10:38;2.50;;;2.30;;
18228;SDS011;9239;50.932;3.142;2023-07-28T02:13:05;4.60;;;2.10;;
18228;SDS011;9239;50.932;3.142;2023-07-28T02:15:31;2.80;;;2.10;;
18228;SDS011;9239;50.932;3.142;2023-07-28T02:18:00;2.75;;;1.77;;
18228;SDS011;9239;50.932;3.142;2023-07-28T02:20:27;1.88;;;1.77;;
18228;SDS011;9239;50.932;3.142;2023-07-28T02:22:54;2.20;;;2.00;;
18228;SDS011;9239;50.932;3.142;2023-07-28T02:25:21;2.33;;;1.60;;
18228;SDS011;9239;50.932;3.142;2023-07-28T02:27:48;3.17;;;1.85;;
18228;SDS011;9239;50.932;3.142;2023-07-28T02:30:15;2.47;;;1.67;;
18228;SDS011;9239;50.932;3.142;2023-07-28T02:32:42;1.70;;;1.60;;
18228;SDS011;9239;50.932;3.142;2023-07-28T02:35:11;1.70;;;1.60;;
18228;SDS011;9239;50.932;3.142;2023-07-28T02:37:38;3.00;;;2.15;;
18228;SDS011;9239;50.932;3.142;2023-07-28T02:40:05;2.38;;;2.17;;
18228;SDS011;9239;50.932;3.142;2023-07-28T02:42:33;1.92;;;1.83;;
18228;SDS011;9239;50.932;3.142;2023-07-28T02:45:00;2.33;;;2.05;;
18228;SDS011;9239;50.932;3.142;2023-07-28T02:47:27;2.25;;;1.98;;
18228;SDS011;9239;50.932;3.142;2023-07-28T02:49:54;2.28;;;2.05;;
18228;SDS011;9239;50.932;3.142;2023-07-28T02:52:23;2.55;;;1.80;;
18228;SDS011;9239;50.932;3.142;2023-07-28T02:54:49;1.92;;;1.83;;
18228;SDS011;9239;50.932;3.142;2023-07-28T02:57:16;2.35;;;2.00;;
18228;SDS011;9239;50.932;3.142;2023-07-28T02:59:43;3.65;;;2.10;;
18228;SDS011;9239;50.932;3.142;2023-07-28T03:02:10;3.00;;;1.70;;
18228;SDS011;9239;50.932;3.142;2023-07-28T03:04:37;3.00;;;2.40;;
18228;SDS011;9239;50.932;3.142;2023-07-28T03:07:04;2.60;;;2.33;;
18228;SDS011;9239;50.932;3.142;2023-07-28T03:09:33;3.38;;;3.08;;
18228;SDS011;9239;50.932;3.142;2023-07-28T03:12:00;2.88;;;2.67;;
18228;SDS011;9239;50.932;3.142;2023-07-28T03:14:28;3.00;;;2.47;;
18228;SDS011;9239;50.932;3.142;2023-07-28T03:16:54;2.65;;;2.45;;
18228;SDS011;9239;50.932;3.142;2023-07-28T03:19:21;3.03;;;2.53;;
18228;SDS011;9239;50.932;3.142;2023-07-28T03:21:48;2.60;;;2.35;;
18228;SDS011;9239;50.932;3.142;2023-07-28T03:24:15;3.45;;;3.00;;
18228;SDS011;9239;50.932;3.142;2023-07-28T03:26:43;5.07;;;3.00;;
18228;SDS011;9239;50.932;3.142;2023-07-28T03:29:10;4.30;;;3.20;;
18228;SDS011;9239;50.932;3.142;2023-07-28T03:31:37;4.55;;;2.90;;
18228;SDS011;9239;50.932;3.142;2023-07-28T03:34:04;4.25;;;3.15;;
18228;SDS011;9239;50.932;3.142;2023-07-28T03:36:31;4.93;;;3.45;;
18228;SDS011;9239;50.932;3.142;2023-07-28T03:38:58;4.15;;;3.13;;
18228;SDS011;9239;50.932;3.142;2023-07-28T03:41:25;5.40;;;3.60;;
18228;SDS011;9239;50.932;3.142;2023-07-28T03:43:53;5.82;;;3.92;;
18228;SDS011;9239;50.932;3.142;2023-07-28T03:46:20;4.50;;;3.53;;
18228;SDS011;9239;50.932;3.142;2023-07-28T03:48:47;4.45;;;3.17;;
18228;SDS011;9239;50.932;3.142;2023-07-28T03:51:14;4.82;;;3.40;;
18228;SDS011;9239;50.932;3.142;2023-07-28T03:53:41;5.93;;;3.47;;
18228;SDS011;9239;50.932;3.142;2023-07-28T03:56:08;3.53;;;3.22;;
18228;SDS011;9239;50.932;3.142;2023-07-28T03:58:35;5.50;;;3.38;;
18228;SDS011;9239;50.932;3.142;2023-07-28T04:01:04;5.90;;;3.38;;
18228;SDS011;9239;50.932;3.142;2023-07-28T04:03:32;6.00;;;3.88;;
18228;SDS011;9239;50.932;3.142;2023-07-28T04:05:59;4.47;;;3.55;;
18228;SDS011;9239;50.932;3.142;2023-07-28T04:08:26;6.30;;;4.03;;
18228;SDS011;9239;50.932;3.142;2023-07-28T04:10:53;5.15;;;3.97;;
18228;SDS011;9239;50.932;3.142;2023-07-28T04:13:20;7.88;;;4.65;;
18228;SDS011;9239;50.932;3.142;2023-07-28T04:15:47;5.07;;;4.20;;
18228;SDS011;9239;50.932;3.142;2023-07-28T04:18:16;5.18;;;3.80;;
18228;SDS011;9239;50.932;3.142;2023-07-28T04:20:43;5.38;;;3.83;;
18228;SDS011;9239;50.932;3.142;2023-07-28T04:23:10;5.70;;;4.00;;
18228;SDS011;9239;50.932;3.142;2023-07-28T04:25:37;4.72;;;4.10;;
18228;SDS011;9239;50.932;3.142;2023-07-28T04:28:04;5.47;;;4.05;;
18228;SDS011;9239;50.932;3.142;2023-07-28T04:30:31;4.82;;;3.92;;
18228;SDS011;9239;50.932;3.142;2023-07-28T04:32:58;4.97;;;3.85;;
18228;SDS011;9239;50.932;3.142;2023-07-28T04:35:26;4.85;;;4.00;;
18228;SDS011;9239;50.932;3.142;2023-07-28T04:37:53;5.68;;;4.13;;
18228;SDS011;9239;50.932;3.142;2023-07-28T04:40:20;4.97;;;3.80;;
18228;SDS011;9239;50.932;3.142;2023-07-28T04:42:47;4.20;;;3.53;;
18228;SDS011;9239;50.932;3.142;2023-07-28T04:45:18;4.68;;;3.97;;
18228;SDS011;9239;50.932;3.142;2023-07-28T04:47:44;5.03;;;3.60;;
18228;SDS011;9239;50.932;3.142;2023-07-28T04:50:11;3.30;;;3.00;;
18228;SDS011;9239;50.932;3.142;2023-07-28T04:52:39;5.00;;;3.00;;
18228;SDS011;9239;50.932;3.142;2023-07-28T04:55:07;3.72;;;3.40;;
18228;SDS011;9239;50.932;3.142;2023-07-28T04:57:34;5.40;;;2.92;;
18228;SDS011;9239;50.932;3.142;2023-07-28T05:00:01;3.65;;;3.35;;
18228;SDS011;9239;50.932;3.142;2023-07-28T05:02:29;4.65;;;2.83;;
18228;SDS011;9239;50.932;3.142;2023-07-28T05:04:56;4.18;;;3.15;;
18228;SDS011;9239;50.932;3.142;2023-07-28T05:07:23;4.63;;;2.58;;
18228;SDS011;9239;50.932;3.142;2023-07-28T05:09:51;4.57;;;3.10;;
18228;SDS011;9239;50.932;3.142;2023-07-28T05:12:18;4.60;;;2.95;;
18228;SDS011;9239;50.932;3.142;2023-07-28T05:14:45;7.75;;;3.30;;
18228;SDS011;9239;50.932;3.142;2023-07-28T05:17:12;3.58;;;3.00;;
18228;SDS011;9239;50.932;3.142;2023-07-28T05:19:40;6.07;;;3.50;;
18228;SDS011;9239;50.932;3.142;2023-07-28T05:22:07;4.28;;;3.67;;
18228;SDS011;9239;50.932;3.142;2023-07-28T05:24:34;5.32;;;3.50;;
18228;SDS011;9239;50.932;3.142;2023-07-28T05:27:02;5.97;;;3.78;;
18228;SDS011;9239;50.932;3.142;2023-07-28T05:29:29;4.68;;;3.15;;
18228;SDS011;9239;50.932;3.142;2023-07-28T05:31:57;4.93;;;3.47;;
18228;SDS011;9239;50.932;3.142;2023-07-28T05:34:25;4.70;;;3.75;;
18228;SDS011;9239;50.932;3.142;2023-07-28T05:36:52;4.50;;;3.83;;
18228;SDS011;9239;50.932;3.142;2023-07-28T05:39:19;4.78;;;4.20;;
18228;SDS011;9239;50.932;3.142;2023-07-28T05:41:46;5.60;;;4.63;;
18228;SDS011;9239;50.932;3.142;2023-07-28T05:44:14;7.72;;;4.80;;
18228;SDS011;9239;50.932;3.142;2023-07-28T05:46:41;9.18;;;4.93;;
18228;SDS011;9239;50.932;3.142;2023-07-28T05:49:08;11.60;;;5.95;;
18228;SDS011;9239;50.932;3.142;2023-07-28T05:51:35;6.22;;;5.20;;
18228;SDS011;9239;50.932;3.142;2023-07-28T05:54:02;8.90;;;6.20;;
18228;SDS011;9239;50.932;3.142;2023-07-28T05:56:29;9.57;;;6.10;;
18228;SDS011;9239;50.932;3.142;2023-07-28T05:58:56;8.82;;;6.35;;
18228;SDS011;9239;50.932;3.142;2023-07-28T06:01:24;9.88;;;7.03;;
18228;SDS011;9239;50.932;3.142;2023-07-28T06:03:52;8.95;;;6.85;;
18228;SDS011;9239;50.932;3.142;2023-07-28T06:06:24;9.88;;;6.82;;
18228;SDS011;9239;50.932;3.142;2023-07-28T06:08:51;8.20;;;6.20;;
18228;SDS011;9239;50.932;3.142;2023-07-28T06:11:17;9.48;;;6.53;;
18228;SDS011;9239;50.932;3.142;2023-07-28T06:13:45;9.85;;;6.55;;
18228;SDS011;9239;50.932;3.142;2023-07-28T06:16:12;8.70;;;6.95;;
18228;SDS011;9239;50.932;3.142;2023-07-28T06:18:40;11.57;;;6.95;;
18228;SDS011;9239;50.932;3.142;2023-07-28T06:21:07;11.02;;;7.55;;
18228;SDS011;9239;50.932;3.142;2023-07-28T06:23:34;10.55;;;6.95;;
18228;SDS011;9239;50.932;3.142;2023-07-28T06:26:01;11.23;;;7.50;;
18228;SDS011;9239;50.932;3.142;2023-07-28T06:28:28;8.85;;;6.68;;
18228;SDS011;9239;50.932;3.142;2023-07-28T06:30:55;10.85;;;7.32;;
18228;SDS011;9239;50.932;3.142;2023-07-28T06:33:23;10.13;;;6.75;;
18228;SDS011;9239;50.932;3.142;2023-07-28T06:35:52;9.57;;;6.90;;
18228;SDS011;9239;50.932;3.142;2023-07-28T06:38:18;10.23;;;6.63;;
18228;SDS011;9239;50.932;3.142;2023-07-28T06:40:45;10.57;;;7.53;;
18228;SDS011;9239;50.932;3.142;2023-07-28T06:43:12;11.68;;;8.02;;
18228;SDS011;9239;50.932;3.142;2023-07-28T06:45:40;11.07;;;7.10;;
18228;SDS011;9239;50.932;3.142;2023-07-28T06:48:06;7.75;;;6.57;;
18228;SDS011;9239;50.932;3.142;2023-07-28T06:50:33;9.20;;;6.35;;
18228;SDS011;9239;50.932;3.142;2023-07-28T06:53:02;12.27;;;7.45;;
18228;SDS011;9239;50.932;3.142;2023-07-28T06:55:30;11.77;;;7.50;;
18228;SDS011;9239;50.932;3.142;2023-07-28T06:57:56;11.18;;;7.53;;
18228;SDS011;9239;50.932;3.142;2023-07-28T07:00:23;10.38;;;8.10;;
18228;SDS011;9239;50.932;3.142;2023-07-28T07:02:50;9.52;;;8.00;;
18228;SDS011;9239;50.932;3.142;2023-07-28T07:05:17;11.98;;;7.95;;
18228;SDS011;9239;50.932;3.142;2023-07-28T07:07:44;10.95;;;7.07;;
18228;SDS011;9239;50.932;3.142;2023-07-28T07:10:13;9.52;;;7.53;;
18228;SDS011;9239;50.932;3.142;2023-07-28T07:12:40;9.75;;;7.60;;
18228;SDS011;9239;50.932;3.142;2023-07-28T07:15:07;9.43;;;7.53;;
18228;SDS011;9239;50.932;3.142;2023-07-28T07:17:36;10.52;;;7.72;;
18228;SDS011;9239;50.932;3.142;2023-07-28T07:20:05;11.48;;;7.95;;
18228;SDS011;9239;50.932;3.142;2023-07-28T07:22:33;7.78;;;6.95;;
18228;SDS011;9239;50.932;3.142;2023-07-28T07:25:00;8.40;;;6.60;;
18228;SDS011;9239;50.932;3.142;2023-07-28T07:27:28;7.32;;;6.53;;
18228;SDS011;9239;50.932;3.142;2023-07-28T07:29:55;8.20;;;5.90;;
18228;SDS011;9239;50.932;3.142;2023-07-28T07:32:23;8.45;;;5.68;;
18228;SDS011;9239;50.932;3.142;2023-07-28T07:34:50;5.75;;;5.25;;
18228;SDS011;9239;50.932;3.142;2023-07-28T07:37:18;6.60;;;5.60;;
18228;SDS011;9239;50.932;3.142;2023-07-28T07:39:45;6.13;;;5.45;;
18228;SDS011;9239;50.932;3.142;2023-07-28T07:42:12;6.57;;;5.95;;
18228;SDS011;9239;50.932;3.142;2023-07-28T07:44:41;6.25;;;5.55;;
18228;SDS011;9239;50.932;3.142;2023-07-28T07:47:14;8.20;;;5.30;;
18228;SDS011;9239;50.932;3.142;2023-07-28T07:49:41;8.10;;;5.00;;
18228;SDS011;9239;50.932;3.142;2023-07-28T07:52:09;7.32;;;4.57;;
18228;SDS011;9239;50.932;3.142;2023-07-28T07:54:36;4.85;;;4.32;;
18228;SDS011;9239;50.932;3.142;2023-07-28T07:57:03;5.82;;;3.47;;
18228;SDS011;9239;50.932;3.142;2023-07-28T07:59:30;4.20;;;3.20;;
18228;SDS011;9239;50.932;3.142;2023-07-28T08:02:00;4.95;;;3.95;;
18228;SDS011;9239;50.932;3.142;2023-07-28T08:04:28;4.90;;;3.25;;
18228;SDS011;9239;50.932;3.142;2023-07-28T08:06:56;5.43;;;3.25;;
18228;SDS011;9239;50.932;3.142;2023-07-28T08:09:23;7.13;;;3.28;;
18228;SDS011;9239;50.932;3.142;2023-07-28T08:11:50;4.05;;;3.08;;
18228;SDS011;9239;50.932;3.142;2023-07-28T08:14:18;3.72;;;3.38;;
18228;SDS011;9239;50.932;3.142;2023-07-28T08:16:45;3.30;;;2.80;;
18228;SDS011;9239;50.932;3.142;2023-07-28T08:19:13;4.15;;;3.58;;
18228;SDS011;9239;50.932;3.142;2023-07-28T08:21:40;4.45;;;2.90;;
18228;SDS011;9239;50.932;3.142;2023-07-28T08:24:07;5.30;;;2.65;;
18228;SDS011;9239;50.932;3.142;2023-07-28T08:26:34;3.15;;;2.35;;
18228;SDS011;9239;50.932;3.142;2023-07-28T08:29:01;4.90;;;2.63;;
18228;SDS011;9239;50.932;3.142;2023-07-28T08:31:28;4.55;;;2.28;;
18228;SDS011;9239;50.932;3.142;2023-07-28T08:33:55;3.10;;;2.00;;
18228;SDS011;9239;50.932;3.142;2023-07-28T08:36:23;4.88;;;2.17;;
18228;SDS011;9239;50.932;3.142;2023-07-28T08:38:50;2.92;;;2.30;;
18228;SDS011;9239;50.932;3.142;2023-07-28T08:41:18;3.00;;;2.00;;
18228;SDS011;9239;50.932;3.142;2023-07-28T08:43:46;2.60;;;2.25;;
18228;SDS011;9239;50.932;3.142;2023-07-28T08:46:13;2.42;;;2.22;;
18228;SDS011;9239;50.932;3.142;2023-07-28T08:48:39;3.15;;;2.00;;
18228;SDS011;9239;50.932;3.142;2023-07-28T08:51:06;1.88;;;1.67;;
18228;SDS011;9239;50.932;3.142;2023-07-28T08:53:38;2.22;;;2.03;;
18228;SDS011;9239;50.932;3.142;2023-07-28T08:56:05;2.50;;;2.25;;
18228;SDS011;9239;50.932;3.142;2023-07-28T08:58:32;4.90;;;1.85;;
18228;SDS011;9239;50.932;3.142;2023-07-28T09:00:59;1.60;;;1.48;;
18228;SDS011;9239;50.932;3.142;2023-07-28T09:03:27;1.10;;;1.00;;
18228;SDS011;9239;50.932;3.142;2023-07-28T09:05:58;1.95;;;1.25;;
18228;SDS011;9239;50.932;3.142;2023-07-28T09:08:26;1.95;;;1.10;;
18228;SDS011;9239;50.932;3.142;2023-07-28T09:10:54;1.13;;;1.02;;
18228;SDS011;9239;50.932;3.142;2023-07-28T09:13:22;1.80;;;0.93;;
18228;SDS011;9239;50.932;3.142;2023-07-28T09:15:49;0.82;;;0.80;;
18228;SDS011;9239;50.932;3.142;2023-07-28T09:18:16;1.30;;;1.20;;
18228;SDS011;9239;50.932;3.142;2023-07-28T09:20:43;1.80;;;0.93;;
18228;SDS011;9239;50.932;3.142;2023-07-28T09:23:12;1.30;;;0.98;;
18228;SDS011;9239;50.932;3.142;2023-07-28T09:25:40;0.82;;;0.82;;
18228;SDS011;9239;50.932;3.142;2023-07-28T09:28:09;1.27;;;1.15;;
18228;SDS011;9239;50.932;3.142;2023-07-28T09:30:43;1.33;;;1.17;;
18228;SDS011;9239;50.932;3.142;2023-07-28T09:33:12;1.35;;;1.23;;
18228;SDS011;9239;50.932;3.142;2023-07-28T09:35:49;1.65;;;1.20;;
18228;SDS011;9239;50.932;3.142;2023-07-28T09:38:16;1.52;;;1.42;;
18228;SDS011;9239;50.932;3.142;2023-07-28T09:40:45;1.40;;;1.30;;
18228;SDS011;9239;50.932;3.142;2023-07-28T09:43:14;1.52;;;1.42;;
18228;SDS011;9239;50.932;3.142;2023-07-28T09:45:42;1.30;;;1.20;;
18228;SDS011;9239;50.932;3.142;2023-07-28T09:48:10;1.92;;;1.20;;
18228;SDS011;9239;50.932;3.142;2023-07-28T09:50:38;2.75;;;1.50;;
18228;SDS011;9239;50.932;3.142;2023-07-28T09:53:07;3.22;;;2.15;;
18228;SDS011;9239;50.932;3.142;2023-07-28T09:55:36;3.42;;;1.40;;
18228;SDS011;9239;50.932;3.142;2023-07-28T09:58:05;1.73;;;1.00;;
18228;SDS011;9239;50.932;3.142;2023-07-28T10:00:38;1.67;;;1.25;;
18228;SDS011;9239;50.932;3.142;2023-07-28T10:03:06;1.58;;;1.35;;
18228;SDS011;9239;50.932;3.142;2023-07-28T10:05:34;1.00;;;1.00;;
18228;SDS011;9239;50.932;3.142;2023-07-28T10:08:02;2.80;;;1.23;;
18228;SDS011;9239;50.932;3.142;2023-07-28T10:10:30;3.50;;;1.45;;
18228;SDS011;9239;50.932;3.142;2023-07-28T10:12:58;2.05;;;0.93;;
18228;SDS011;9239;50.932;3.142;2023-07-28T10:15:29;1.77;;;1.50;;
18228;SDS011;9239;50.932;3.142;2023-07-28T10:17:58;4.20;;;1.50;;
18228;SDS011;9239;50.932;3.142;2023-07-28T10:20:29;1.00;;;1.00;;
18228;SDS011;9239;50.932;3.142;2023-07-28T10:23:03;2.22;;;1.52;;
18228;SDS011;9239;50.932;3.142;2023-07-28T10:25:34;3.90;;;3.28;;
18228;SDS011;9239;50.932;3.142;2023-07-28T10:28:03;5.20;;;2.78;;
18228;SDS011;9239;50.932;3.142;2023-07-28T10:30:34;1.42;;;1.33;;
18228;SDS011;9239;50.932;3.142;2023-07-28T10:33:04;1.63;;;1.52;;
18228;SDS011;9239;50.932;3.142;2023-07-28T10:35:31;1.95;;;1.17;;
18228;SDS011;9239;50.932;3.142;2023-07-28T10:38:04;1.65;;;1.30;;
18228;SDS011;9239;50.932;3.142;2023-07-28T10:41:06;3.55;;;2.20;;
18228;SDS011;9239;50.932;3.142;2023-07-28T10:43:34;1.75;;;1.40;;
18228;SDS011;9239;50.932;3.142;2023-07-28T10:46:01;2.10;;;1.50;;
18228;SDS011;9239;50.932;3.142;2023-07-28T10:48:31;2.75;;;1.85;;
18228;SDS011;9239;50.932;3.142;2023-07-28T10:50:58;2.20;;;1.70;;
18228;SDS011;9239;50.932;3.142;2023-07-28T10:53:25;1.90;;;1.40;;
18228;SDS011;9239;50.932;3.142;2023-07-28T10:55:52;3.00;;;2.60;;
18228;SDS011;9239;50.932;3.142;2023-07-28T10:58:19;1.92;;;1.73;;
18228;SDS011;9239;50.932;3.142;2023-07-28T11:00:46;2.53;;;1.98;;
18228;SDS011;9239;50.932;3.142;2023-07-28T11:03:16;1.95;;;1.80;;
18228;SDS011;9239;50.932;3.142;2023-07-28T11:05:44;1.77;;;1.60;;
18228;SDS011;9239;50.932;3.142;2023-07-28T11:08:14;2.25;;;1.70;;
18228;SDS011;9239;50.932;3.142;2023-07-28T11:10:41;2.45;;;1.70;;
18228;SDS011;9239;50.932;3.142;2023-07-28T11:13:08;2.08;;;1.35;;
18228;SDS011;9239;50.932;3.142;2023-07-28T11:15:35;1.50;;;1.38;;
18228;SDS011;9239;50.932;3.142;2023-07-28T11:18:02;2.30;;;1.23;;
18228;SDS011;9239;50.932;3.142;2023-07-28T11:20:29;1.98;;;1.77;;
18228;SDS011;9239;50.932;3.142;2023-07-28T11:22:58;1.52;;;1.20;;
18228;SDS011;9239;50.932;3.142;2023-07-28T11:25:27;1.33;;;1.17;;
18228;SDS011;9239;50.932;3.142;2023-07-28T11:27:55;2.03;;;1.35;;
18228;SDS011;9239;50.932;3.142;2023-07-28T11:30:22;1.17;;;1.08;;
18228;SDS011;9239;50.932;3.142;2023-07-28T11:32:50;1.10;;;0.82;;
18228;SDS011;9239;50.932;3.142;2023-07-28T11:35:19;1.55;;;1.17;;
18228;SDS011;9239;50.932;3.142;2023-07-28T11:37:48;1.45;;;1.35;;
18228;SDS011;9239;50.932;3.142;2023-07-28T11:40:18;1.05;;;0.93;;
18228;SDS011;9239;50.932;3.142;2023-07-28T11:42:48;1.08;;;1.00;;
18228;SDS011;9239;50.932;3.142;2023-07-28T11:45:18;1.63;;;1.00;;
18228;SDS011;9239;50.932;3.142;2023-07-28T11:47:57;2.90;;;0.80;;
18228;SDS011;9239;50.932;3.142;2023-07-28T11:50:25;1.52;;;0.85;;
18228;SDS011;9239;50.932;3.142;2023-07-28T11:52:53;1.92;;;1.00;;
18228;SDS011;9239;50.932;3.142;2023-07-28T11:55:22;2.83;;;0.90;;
18228;SDS011;9239;50.932;3.142;2023-07-28T11:57:50;1.13;;;1.00;;
18228;SDS011;9239;50.932;3.142;2023-07-28T12:00:18;1.25;;;0.98;;
18228;SDS011;9239;50.932;3.142;2023-07-28T12:02:59;1.10;;;1.00;;
18228;SDS011;9239;50.932;3.142;2023-07-28T12:05:29;1.05;;;0.90;;
18228;SDS011;9239;50.932;3.142;2023-07-28T12:07:56;1.30;;;1.20;;
18228;SDS011;9239;50.932;3.142;2023-07-28T12:10:24;2.95;;;1.02;;
18228;SDS011;9239;50.932;3.142;2023-07-28T12:12:51;0.80;;;0.80;;
18228;SDS011;9239;50.932;3.142;2023-07-28T12:15:19;1.00;;;0.90;;
18228;SDS011;9239;50.932;3.142;2023-07-28T12:18:01;2.13;;;1.00;;
18228;SDS011;9239;50.932;3.142;2023-07-28T12:20:36;3.22;;;1.13;;
18228;SDS011;9239;50.932;3.142;2023-07-28T12:23:03;1.05;;;0.80;;
18228;SDS011;9239;50.932;3.142;2023-07-28T12:25:32;1.77;;;0.90;;
18228;SDS011;9239;50.932;3.142;2023-07-28T12:28:00;1.02;;;1.00;;
18228;SDS011;9239;50.932;3.142;2023-07-28T12:30:27;1.52;;;1.10;;
18228;SDS011;9239;50.932;3.142;2023-07-28T12:32:54;1.70;;;1.10;;
18228;SDS011;9239;50.932;3.142;2023-07-28T12:35:21;1.15;;;1.05;;
18228;SDS011;9239;50.932;3.142;2023-07-28T12:37:49;0.98;;;0.90;;
18228;SDS011;9239;50.932;3.142;2023-07-28T12:40:17;1.58;;;1.00;;
18228;SDS011;9239;50.932;3.142;2023-07-28T12:42:46;1.45;;;1.00;;
18228;SDS011;9239;50.932;3.142;2023-07-28T12:45:13;1.00;;;0.90;;
18228;SDS011;9239;50.932;3.142;2023-07-28T12:47:41;1.58;;;0.90;;
18228;SDS011;9239;50.932;3.142;2023-07-28T12:50:08;1.15;;;1.02;;
18228;SDS011;9239;50.932;3.142;2023-07-28T12:52:36;1.50;;;0.70;;
18228;SDS011;9239;50.932;3.142;2023-07-28T12:55:03;1.17;;;0.98;;
18228;SDS011;9239;50.932;3.142;2023-07-28T12:57:30;2.13;;;1.00;;
18228;SDS011;9239;50.932;3.142;2023-07-28T12:59:59;2.03;;;0.80;;
18228;SDS011;9239;50.932;3.142;2023-07-28T13:02:26;1.10;;;0.70;;
18228;SDS011;9239;50.932;3.142;2023-07-28T13:04:52;1.02;;;0.93;;
18228;SDS011;9239;50.932;3.142;2023-07-28T13:07:19;1.75;;;1.00;;
18228;SDS011;9239;50.932;3.142;2023-07-28T13:09:47;0.80;;;0.80;;
18228;SDS011;9239;50.932;3.142;2023-07-28T13:12:14;0.82;;;0.82;;
18228;SDS011;9239;50.932;3.142;2023-07-28T13:14:41;1.08;;;0.98;;
18228;SDS011;9239;50.932;3.142;2023-07-28T13:17:09;0.90;;;0.90;;
18228;SDS011;9239;50.932;3.142;2023-07-28T13:19:37;0.80;;;0.70;;
18228;SDS011;9239;50.932;3.142;2023-07-28T13:22:04;1.17;;;1.13;;
18228;SDS011;9239;50.932;3.142;2023-07-28T13:24:31;1.08;;;0.65;;
18228;SDS011;9239;50.932;3.142;2023-07-28T13:26:58;1.50;;;1.13;;
18228;SDS011;9239;50.932;3.142;2023-07-28T13:29:25;2.20;;;1.25;;
18228;SDS011;9239;50.932;3.142;2023-07-28T13:34:26;1.20;;;0.95;;
18228;SDS011;9239;50.932;3.142;2023-07-28T13:36:53;1.58;;;1.17;;
18228;SDS011;9239;50.932;3.142;2023-07-28T13:39:21;1.17;;;1.08;;
18228;SDS011;9239;50.932;3.142;2023-07-28T13:41:48;1.17;;;1.05;;
18228;SDS011;9239;50.932;3.142;2023-07-28T13:44:15;1.40;;;1.00;;
18228;SDS011;9239;50.932;3.142;2023-07-28T13:46:42;2.58;;;1.30;;
18228;SDS011;9239;50.932;3.142;2023-07-28T13:49:09;1.50;;;0.90;;
18228;SDS011;9239;50.932;3.142;2023-07-28T13:51:37;2.33;;;1.10;;
18228;SDS011;9239;50.932;3.142;2023-07-28T13:54:04;1.40;;;0.85;;
18228;SDS011;9239;50.932;3.142;2023-07-28T13:56:31;1.10;;;1.00;;
18228;SDS011;9239;50.932;3.142;2023-07-28T13:58:58;1.13;;;1.00;;
18228;SDS011;9239;50.932;3.142;2023-07-28T14:01:24;2.83;;;0.70;;
18228;SDS011;9239;50.932;3.142;2023-07-28T14:03:51;0.82;;;0.80;;
18228;SDS011;9239;50.932;3.142;2023-07-28T14:06:18;1.80;;;1.23;;
18228;SDS011;9239;50.932;3.142;2023-07-28T14:08:47;0.88;;;0.88;;
18228;SDS011;9239;50.932;3.142;2023-07-28T14:11:14;0.73;;;0.73;;
18228;SDS011;9239;50.932;3.142;2023-07-28T14:13:40;1.65;;;1.20;;
18228;SDS011;9239;50.932;3.142;2023-07-28T14:16:07;1.58;;;1.30;;
18228;SDS011;9239;50.932;3.142;2023-07-28T14:18:35;1.40;;;1.02;;
18228;SDS011;9239;50.932;3.142;2023-07-28T14:21:02;1.75;;;0.95;;
18228;SDS011;9239;50.932;3.142;2023-07-28T14:23:28;1.42;;;0.90;;
18228;SDS011;9239;50.932;3.142;2023-07-28T14:25:57;1.00;;;0.85;;
18228;SDS011;9239;50.932;3.142;2023-07-28T14:28:24;0.75;;;0.75;;
18228;SDS011;9239;50.932;3.142;2023-07-28T14:30:51;1.67;;;1.15;;
18228;SDS011;9239;50.932;3.142;2023-07-28T14:33:18;2.60;;;0.70;;
18228;SDS011;9239;50.932;3.142;2023-07-28T14:35:45;1.95;;;1.13;;
18228;SDS011;9239;50.932;3.142;2023-07-28T14:38:13;1.10;;;1.00;;
18228;SDS011;9239;50.932;3.142;2023-07-28T14:40:41;1.15;;;1.05;;
18228;SDS011;9239;50.932;3.142;2023-07-28T14:43:14;1.10;;;0.70;;
18228;SDS011;9239;50.932;3.142;2023-07-28T14:45:41;0.85;;;0.85;;
18228;SDS011;9239;50.932;3.142;2023-07-28T14:48:08;0.80;;;0.80;;
18228;SDS011;9239;50.932;3.142;2023-07-28T14:50:35;2.13;;;0.88;;
18228;SDS011;9239;50.932;3.142;2023-07-28T14:53:02;1.83;;;0.60;;
18228;SDS011;9239;50.932;3.142;2023-07-28T14:55:29;1.73;;;0.82;;
18228;SDS011;9239;50.932;3.142;2023-07-28T14:57:56;1.10;;;0.90;;
18228;SDS011;9239;50.932;3.142;2023-07-28T15:00:24;1.67;;;0.95;;
18228;SDS011;9239;50.932;3.142;2023-07-28T15:02:51;0.73;;;0.70;;
18228;SDS011;9239;50.932;3.142;2023-07-28T15:05:18;1.30;;;0.80;;
18228;SDS011;9239;50.932;3.142;2023-07-28T15:07:45;1.23;;;1.13;;